sensor_id;sensor_type;location;lat;lon;timestamp;pressure;altitude;pressure_sealevel;temperature;humidity
50380;BME280;37474;59.468;18.040;2023-04-06T00:00:58;102525.25;;;-5.33;100.00
50380;BME280;37474;59.468;18.040;2023-04-06T00:03:28;102531.56;;;-5.23;100.00
50380;BME280;37474;59.468;18.040;2023-04-06T00:05:58;102534.69;;;-5.29;100.00
50380;BME280;37474;59.468;18.040;2023-04-06T00:08:26;102529.72;;;-5.07;100.00
50380;BME280;37474;59.468;18.040;2023-04-06T00:10:57;102539.47;;;-5.16;100.00
50380;BME280;37474;59.468;18.040;2023-04-06T00:13:28;102530.03;;;-4.78;100.00
50380;BME280;37474;59.468;18.040;2023-04-06T00:15:56;102532.94;;;-4.69;100.00
50380;BME280;37474;59.468;18.040;2023-04-06T00:18:26;102540.50;;;-4.70;100.00
50380;BME280;37474;59.468;18.040;2023-04-06T00:20:56;102532.94;;;-4.90;100.00
50380;BME280;37474;59.468;18.040;2023-04-06T00:23:23;102541.63;;;-4.83;100.00
50380;BME280;37474;59.468;18.040;2023-04-06T00:25:54;102544.38;;;-4.99;100.00
50380;BME280;37474;59.468;18.040;2023-04-06T00:28:22;102542.50;;;-5.03;100.00
50380;BME280;37474;59.468;18.040;2023-04-06T00:30:53;102538.38;;;-5.01;100.00
50380;BME280;37474;59.468;18.040;2023-04-06T00:33:24;102542.16;;;-4.92;100.00
50380;BME280;37474;59.468;18.040;2023-04-06T00:35:53;102541.41;;;-4.89;100.00
50380;BME280;37474;59.468;18.040;2023-04-06T00:38:21;102548.13;;;-4.90;100.00
50380;BME280;37474;59.468;18.040;2023-04-06T00:40:54;102542.44;;;-4.84;100.00
50380;BME280;37474;59.468;18.040;2023-04-06T00:43:21;102517.47;;;-4.97;100.00
50380;BME280;37474;59.468;18.040;2023-04-06T00:45:50;102542.06;;;-4.72;100.00
50380;BME280;37474;59.468;18.040;2023-04-06T00:48:24;102495.31;;;-4.82;100.00
50380;BME280;37474;59.468;18.040;2023-04-06T00:50:52;102537.06;;;-4.50;100.00
50380;BME280;37474;59.468;18.040;2023-04-06T00:53:19;102537.25;;;-4.45;100.00
50380;BME280;37474;59.468;18.040;2023-04-06T00:55:52;102540.53;;;-4.48;100.00
50380;BME280;37474;59.468;18.040;2023-04-06T00:58:20;102543.13;;;-4.46;100.00
50380;BME280;37474;59.468;18.040;2023-04-06T01:00:47;102539.88;;;-4.65;100.00
50380;BME280;37474;59.468;18.040;2023-04-06T01:03:20;102539.78;;;-4.45;100.00
50380;BME280;37474;59.468;18.040;2023-04-06T01:05:49;102549.63;;;-4.74;100.00
50380;BME280;37474;59.468;18.040;2023-04-06T01:08:23;102542.44;;;-4.84;100.00
50380;BME280;37474;59.468;18.040;2023-04-06T01:10:51;102543.78;;;-4.51;100.00
50380;BME280;37474;59.468;18.040;2023-04-06T01:13:19;102533.63;;;-4.52;100.00
50380;BME280;37474;59.468;18.040;2023-04-06T01:15:51;102539.84;;;-4.44;100.00
50380;BME280;37474;59.468;18.040;2023-04-06T01:18:25;102548.50;;;-4.60;100.00
50380;BME280;37474;59.468;18.040;2023-04-06T01:20:56;102546.16;;;-4.76;100.00
50380;BME280;37474;59.468;18.040;2023-04-06T01:23:26;102538.81;;;-4.70;100.00
50380;BME280;37474;59.468;18.040;2023-04-06T01:25:54;102548.31;;;-4.64;100.00
50380;BME280;37474;59.468;18.040;2023-04-06T01:28:24;102543.22;;;-4.66;100.00
50380;BME280;37474;59.468;18.040;2023-04-06T01:30:52;102547.50;;;-4.63;100.00
50380;BME280;37474;59.468;18.040;2023-04-06T01:33:19;102544.19;;;-4.62;100.00
50380;BME280;37474;59.468;18.040;2023-04-06T01:35:51;102538.78;;;-4.71;100.00
50380;BME280;37474;59.468;18.040;2023-04-06T01:38:19;102538.63;;;-4.54;100.00
50380;BME280;37474;59.468;18.040;2023-04-06T01:40:48;102539.06;;;-4.43;100.00
50380;BME280;37474;59.468;18.040;2023-04-06T01:43:18;102536.44;;;-4.44;100.00
50380;BME280;37474;59.468;18.040;2023-04-06T01:45:46;102534.56;;;-4.71;100.00
50380;BME280;37474;59.468;18.040;2023-04-06T01:48:14;102545.97;;;-4.81;100.00
50380;BME280;37474;59.468;18.040;2023-04-06T01:50:46;102547.75;;;-4.78;100.00
50380;BME280;37474;59.468;18.040;2023-04-06T01:53:14;102540.91;;;-4.81;100.00
50380;BME280;37474;59.468;18.040;2023-04-06T01:55:44;102545.66;;;-4.67;100.00
50380;BME280;37474;59.468;18.040;2023-04-06T01:58:16;102532.41;;;-4.83;100.00
50380;BME280;37474;59.468;18.040;2023-04-06T02:00:44;102541.34;;;-4.70;100.00
50380;BME280;37474;59.468;18.040;2023-04-06T02:03:14;102550.75;;;-4.88;100.00
50380;BME280;37474;59.468;18.040;2023-04-06T02:05:43;102551.97;;;-4.99;100.00
50380;BME280;37474;59.468;18.040;2023-04-06T02:08:11;102469.53;;;-5.55;100.00
50380;BME280;37474;59.468;18.040;2023-04-06T02:10:41;102551.31;;;-5.15;100.00
50380;BME280;37474;59.468;18.040;2023-04-06T02:13:11;102485.75;;;-5.50;100.00
50380;BME280;37474;59.468;18.040;2023-04-06T02:15:40;102550.03;;;-5.05;100.00
50380;BME280;37474;59.468;18.040;2023-04-06T02:18:10;102546.56;;;-5.07;100.00
50380;BME280;37474;59.468;18.040;2023-04-06T02:20:40;102546.72;;;-5.23;100.00
50380;BME280;37474;59.468;18.040;2023-04-06T02:23:08;102546.25;;;-5.15;100.00
50380;BME280;37474;59.468;18.040;2023-04-06T02:25:38;102542.03;;;-5.35;100.00
50380;BME280;37474;59.468;18.040;2023-04-06T02:28:08;102556.78;;;-5.25;100.00
50380;BME280;37474;59.468;18.040;2023-04-06T02:30:36;102549.84;;;-5.10;100.00
50380;BME280;37474;59.468;18.040;2023-04-06T02:33:06;102559.38;;;-5.23;100.00
50380;BME280;37474;59.468;18.040;2023-04-06T02:35:36;102548.41;;;-5.24;100.00
50380;BME280;37474;59.468;18.040;2023-04-06T02:38:04;102555.72;;;-5.30;100.00
50380;BME280;37474;59.468;18.040;2023-04-06T02:40:34;102553.00;;;-5.35;100.00
50380;BME280;37474;59.468;18.040;2023-04-06T02:43:04;102550.38;;;-5.17;100.00
50380;BME280;37474;59.468;18.040;2023-04-06T02:45:34;102551.44;;;-5.12;100.00
50380;BME280;37474;59.468;18.040;2023-04-06T02:48:02;102552.94;;;-4.96;100.00
50380;BME280;37474;59.468;18.040;2023-04-06T02:50:36;102552.72;;;-4.81;100.00
50380;BME280;37474;59.468;18.040;2023-04-06T02:53:03;102546.28;;;-4.73;100.00
50380;BME280;37474;59.468;18.040;2023-04-06T02:55:31;102556.53;;;-4.70;100.00
50380;BME280;37474;59.468;18.040;2023-04-06T02:58:03;102557.88;;;-4.78;100.00
50380;BME280;37474;59.468;18.040;2023-04-06T03:00:31;102561.41;;;-4.74;100.00
50380;BME280;37474;59.468;18.040;2023-04-06T03:02:59;102557.44;;;-4.68;100.00
50380;BME280;37474;59.468;18.040;2023-04-06T03:05:29;102512.09;;;-4.84;100.00
50380;BME280;37474;59.468;18.040;2023-04-06T03:08:00;102555.88;;;-4.66;100.00
50380;BME280;37474;59.468;18.040;2023-04-06T03:10:28;102554.56;;;-4.34;100.00
50380;BME280;37474;59.468;18.040;2023-04-06T03:12:58;102553.72;;;-4.34;100.00
50380;BME280;37474;59.468;18.040;2023-04-06T03:15:27;102559.59;;;-4.35;100.00
50380;BME280;37474;59.468;18.040;2023-04-06T03:17:56;102562.56;;;-4.45;100.00
50380;BME280;37474;59.468;18.040;2023-04-06T03:20:28;102564.03;;;-4.51;100.00
50380;BME280;37474;59.468;18.040;2023-04-06T03:22:59;102497.47;;;-4.70;100.00
50380;BME280;37474;59.468;18.040;2023-04-06T03:25:27;102563.03;;;-4.33;100.00
50380;BME280;37474;59.468;18.040;2023-04-06T03:27:56;102561.50;;;-4.07;100.00
50380;BME280;37474;59.468;18.040;2023-04-06T03:30:26;102554.63;;;-3.65;100.00
50380;BME280;37474;59.468;18.040;2023-04-06T03:32:54;102532.63;;;-3.66;100.00
50380;BME280;37474;59.468;18.040;2023-04-06T03:35:24;102557.91;;;-3.67;100.00
50380;BME280;37474;59.468;18.040;2023-04-06T03:37:53;102497.09;;;-4.14;100.00
50380;BME280;37474;59.468;18.040;2023-04-06T03:40:23;102564.84;;;-3.86;100.00
50380;BME280;37474;59.468;18.040;2023-04-06T03:42:53;102532.81;;;-3.84;100.00
50380;BME280;37474;59.468;18.040;2023-04-06T03:45:22;102564.00;;;-3.62;100.00
50380;BME280;37474;59.468;18.040;2023-04-06T03:47:50;102574.09;;;-3.64;100.00
50380;BME280;37474;59.468;18.040;2023-04-06T03:50:20;102573.97;;;-3.67;100.00
50380;BME280;37474;59.468;18.040;2023-04-06T03:52:50;102573.69;;;-3.75;100.00
50380;BME280;37474;59.468;18.040;2023-04-06T03:55:18;102576.75;;;-3.83;100.00
50380;BME280;37474;59.468;18.040;2023-04-06T03:57:49;102577.66;;;-3.83;100.00
50380;BME280;37474;59.468;18.040;2023-04-06T04:00:19;102584.69;;;-3.74;100.00
50380;BME280;37474;59.468;18.040;2023-04-06T04:02:47;102584.75;;;-3.73;100.00
50380;BME280;37474;59.468;18.040;2023-04-06T04:05:14;102578.69;;;-3.54;100.00
50380;BME280;37474;59.468;18.040;2023-04-06T04:07:46;102583.50;;;-3.37;100.00
50380;BME280;37474;59.468;18.040;2023-04-06T04:10:14;102550.47;;;-3.63;100.00
50380;BME280;37474;59.468;18.040;2023-04-06T04:12:42;102585.91;;;-3.40;100.00
50380;BME280;37474;59.468;18.040;2023-04-06T04:15:15;102575.13;;;-3.59;100.00
50380;BME280;37474;59.468;18.040;2023-04-06T04:17:46;102578.94;;;-3.22;100.00
50380;BME280;37474;59.468;18.040;2023-04-06T04:20:18;102591.22;;;-3.34;100.00
50380;BME280;37474;59.468;18.040;2023-04-06T04:22:45;102589.41;;;-3.38;100.00
50380;BME280;37474;59.468;18.040;2023-04-06T04:25:15;102591.94;;;-3.38;100.00
50380;BME280;37474;59.468;18.040;2023-04-06T04:27:45;102593.06;;;-3.30;100.00
50380;BME280;37474;59.468;18.040;2023-04-06T04:30:14;102594.81;;;-3.28;100.00
50380;BME280;37474;59.468;18.040;2023-04-06T04:32:44;102599.84;;;-2.80;100.00
50380;BME280;37474;59.468;18.040;2023-04-06T04:35:14;102599.50;;;-2.90;100.00
50380;BME280;37474;59.468;18.040;2023-04-06T04:37:42;102596.66;;;-3.00;100.00
50380;BME280;37474;59.468;18.040;2023-04-06T04:40:12;102590.81;;;-2.97;100.00
50380;BME280;37474;59.468;18.040;2023-04-06T04:42:42;102598.78;;;-2.86;100.00
50380;BME280;37474;59.468;18.040;2023-04-06T04:45:10;102542.03;;;-3.14;100.00
50380;BME280;37474;59.468;18.040;2023-04-06T04:47:41;102605.25;;;-2.71;100.00
50380;BME280;37474;59.468;18.040;2023-04-06T04:50:09;102572.94;;;-2.75;100.00
50380;BME280;37474;59.468;18.040;2023-04-06T04:52:37;102605.09;;;-2.50;100.00
50380;BME280;37474;59.468;18.040;2023-04-06T04:55:07;102611.09;;;-2.46;100.00
50380;BME280;37474;59.468;18.040;2023-04-06T04:57:37;102609.72;;;-2.36;100.00
50380;BME280;37474;59.468;18.040;2023-04-06T05:00:06;102612.56;;;-2.27;100.00
50380;BME280;37474;59.468;18.040;2023-04-06T05:02:36;102577.47;;;-2.39;100.00
50380;BME280;37474;59.468;18.040;2023-04-06T05:05:08;102611.56;;;-2.05;100.00
50380;BME280;37474;59.468;18.040;2023-04-06T05:07:35;102618.59;;;-1.97;100.00
50380;BME280;37474;59.468;18.040;2023-04-06T05:10:06;102613.03;;;-1.83;100.00
50380;BME280;37474;59.468;18.040;2023-04-06T05:12:36;102601.44;;;-1.75;100.00
50380;BME280;37474;59.468;18.040;2023-04-06T05:15:05;102573.53;;;-1.72;100.00
50380;BME280;37474;59.468;18.040;2023-04-06T05:17:37;102597.47;;;-1.36;100.00
50380;BME280;37474;59.468;18.040;2023-04-06T05:20:07;102604.09;;;-1.11;100.00
50380;BME280;37474;59.468;18.040;2023-04-06T05:22:35;102618.97;;;-0.93;100.00
50380;BME280;37474;59.468;18.040;2023-04-06T05:25:08;102618.41;;;-0.83;100.00
50380;BME280;37474;59.468;18.040;2023-04-06T05:27:35;102619.81;;;-0.61;100.00
50380;BME280;37474;59.468;18.040;2023-04-06T05:30:04;102620.97;;;-0.48;100.00
50380;BME280;37474;59.468;18.040;2023-04-06T05:32:38;102623.81;;;-0.34;100.00
50380;BME280;37474;59.468;18.040;2023-04-06T05:35:08;102620.47;;;-0.33;100.00
50380;BME280;37474;59.468;18.040;2023-04-06T05:37:42;102613.88;;;-0.23;100.00
50380;BME280;37474;59.468;18.040;2023-04-06T05:40:11;102621.97;;;-0.05;100.00
50380;BME280;37474;59.468;18.040;2023-04-06T05:42:39;102617.84;;;0.00;100.00
50380;BME280;37474;59.468;18.040;2023-04-06T05:45:12;102563.81;;;-0.21;100.00
50380;BME280;37474;59.468;18.040;2023-04-06T05:47:45;102623.56;;;0.29;100.00
50380;BME280;37474;59.468;18.040;2023-04-06T05:50:15;102553.38;;;0.06;100.00
50380;BME280;37474;59.468;18.040;2023-04-06T05:52:43;102627.56;;;0.57;100.00
50380;BME280;37474;59.468;18.040;2023-04-06T05:55:15;102628.44;;;0.61;100.00
50380;BME280;37474;59.468;18.040;2023-04-06T05:57:44;102629.16;;;0.52;100.00
50380;BME280;37474;59.468;18.040;2023-04-06T06:00:13;102630.47;;;0.77;100.00
50380;BME280;37474;59.468;18.040;2023-04-06T06:02:41;102634.47;;;1.08;100.00
50380;BME280;37474;59.468;18.040;2023-04-06T06:05:11;102632.78;;;1.09;100.00
50380;BME280;37474;59.468;18.040;2023-04-06T06:07:40;102634.03;;;1.30;100.00
50380;BME280;37474;59.468;18.040;2023-04-06T06:10:11;102634.25;;;0.96;100.00
50380;BME280;37474;59.468;18.040;2023-04-06T06:12:39;102639.03;;;1.26;100.00
50380;BME280;37474;59.468;18.040;2023-04-06T06:15:07;102639.69;;;1.64;100.00
50380;BME280;37474;59.468;18.040;2023-04-06T06:17:37;102644.66;;;1.55;100.00
50380;BME280;37474;59.468;18.040;2023-04-06T06:20:08;102612.28;;;1.55;100.00
50380;BME280;37474;59.468;18.040;2023-04-06T06:22:36;102645.56;;;2.13;100.00
50380;BME280;37474;59.468;18.040;2023-04-06T06:25:05;102640.72;;;1.74;100.00
50380;BME280;37474;59.468;18.040;2023-04-06T06:27:33;102632.53;;;1.98;100.00
50380;BME280;37474;59.468;18.040;2023-04-06T06:30:01;102638.31;;;1.84;100.00
50380;BME280;37474;59.468;18.040;2023-04-06T06:32:31;102637.56;;;1.93;100.00
50380;BME280;37474;59.468;18.040;2023-04-06T06:35:04;102633.00;;;2.30;100.00
50380;BME280;37474;59.468;18.040;2023-04-06T06:37:31;102595.03;;;2.00;100.00
50380;BME280;37474;59.468;18.040;2023-04-06T06:39:59;102642.66;;;2.51;100.00
50380;BME280;37474;59.468;18.040;2023-04-06T06:42:30;102638.53;;;2.63;96.66
50380;BME280;37474;59.468;18.040;2023-04-06T06:45:01;102647.03;;;2.61;97.78
50380;BME280;37474;59.468;18.040;2023-04-06T06:47:28;102650.56;;;2.71;97.00
50380;BME280;37474;59.468;18.040;2023-04-06T06:49:58;102649.03;;;2.86;97.73
50380;BME280;37474;59.468;18.040;2023-04-06T06:52:26;102650.72;;;2.84;94.56
50380;BME280;37474;59.468;18.040;2023-04-06T06:54:55;102648.72;;;2.59;95.31
50380;BME280;37474;59.468;18.040;2023-04-06T06:57:25;102654.28;;;2.96;95.52
50380;BME280;37474;59.468;18.040;2023-04-06T06:59:54;102652.19;;;3.46;92.15
50380;BME280;37474;59.468;18.040;2023-04-06T07:02:22;102652.44;;;2.84;93.13
50380;BME280;37474;59.468;18.040;2023-04-06T07:04:54;102647.44;;;2.95;94.73
50380;BME280;37474;59.468;18.040;2023-04-06T07:07:22;102656.53;;;3.52;91.10
50380;BME280;37474;59.468;18.040;2023-04-06T07:09:50;102597.72;;;3.79;88.95
50380;BME280;37474;59.468;18.040;2023-04-06T07:12:21;102648.78;;;3.47;91.16
50380;BME280;37474;59.468;18.040;2023-04-06T07:14:49;102649.69;;;3.52;90.80
50380;BME280;37474;59.468;18.040;2023-04-06T07:17:21;102643.75;;;3.58;89.59
50380;BME280;37474;59.468;18.040;2023-04-06T07:19:54;102644.59;;;3.57;91.53
50380;BME280;37474;59.468;18.040;2023-04-06T07:22:34;102647.22;;;3.64;90.97
50380;BME280;37474;59.468;18.040;2023-04-06T07:25:03;102647.84;;;3.37;90.55
50380;BME280;37474;59.468;18.040;2023-04-06T07:27:38;102647.34;;;3.78;91.25
50380;BME280;37474;59.468;18.040;2023-04-06T07:30:08;102660.75;;;3.45;91.60
50380;BME280;37474;59.468;18.040;2023-04-06T07:32:37;102656.25;;;3.24;94.09
50380;BME280;37474;59.468;18.040;2023-04-06T07:35:06;102620.97;;;2.97;93.65
50380;BME280;37474;59.468;18.040;2023-04-06T07:37:36;102668.22;;;3.24;93.54
50380;BME280;37474;59.468;18.040;2023-04-06T07:40:04;102644.56;;;3.51;91.03
50380;BME280;37474;59.468;18.040;2023-04-06T07:42:32;102609.50;;;3.54;90.42
50380;BME280;37474;59.468;18.040;2023-04-06T07:45:03;102662.59;;;3.64;91.44
50380;BME280;37474;59.468;18.040;2023-04-06T07:47:31;102657.75;;;3.02;95.57
50380;BME280;37474;59.468;18.040;2023-04-06T07:50:00;102658.66;;;3.07;94.03
50380;BME280;37474;59.468;18.040;2023-04-06T07:52:30;102662.19;;;3.20;96.59
50380;BME280;37474;59.468;18.040;2023-04-06T07:54:59;102617.31;;;3.68;91.53
50380;BME280;37474;59.468;18.040;2023-04-06T07:57:26;102660.25;;;3.93;89.80
50380;BME280;37474;59.468;18.040;2023-04-06T07:59:58;102652.84;;;4.42;89.06
50380;BME280;37474;59.468;18.040;2023-04-06T08:02:27;102659.66;;;4.36;87.28
50380;BME280;37474;59.468;18.040;2023-04-06T08:04:55;102636.53;;;4.31;85.09
50380;BME280;37474;59.468;18.040;2023-04-06T08:07:28;102663.94;;;4.38;86.34
50380;BME280;37474;59.468;18.040;2023-04-06T08:09:56;102663.88;;;4.26;80.71
50380;BME280;37474;59.468;18.040;2023-04-06T08:12:24;102662.09;;;4.11;83.28
50380;BME280;37474;59.468;18.040;2023-04-06T08:14:56;102661.22;;;4.08;77.65
50380;BME280;37474;59.468;18.040;2023-04-06T08:17:24;102675.50;;;3.74;80.99
50380;BME280;37474;59.468;18.040;2023-04-06T08:19:52;102669.88;;;4.23;79.03
50380;BME280;37474;59.468;18.040;2023-04-06T08:22:25;102665.72;;;4.55;74.21
50380;BME280;37474;59.468;18.040;2023-04-06T08:24:53;102667.59;;;4.89;72.08
50380;BME280;37474;59.468;18.040;2023-04-06T08:27:21;102672.78;;;5.14;68.91
50380;BME280;37474;59.468;18.040;2023-04-06T08:29:51;102664.94;;;4.65;72.04
50380;BME280;37474;59.468;18.040;2023-04-06T08:32:19;102635.91;;;4.90;73.36
50380;BME280;37474;59.468;18.040;2023-04-06T08:34:46;102677.09;;;5.25;72.14
50380;BME280;37474;59.468;18.040;2023-04-06T08:37:16;102670.16;;;4.94;76.79
50380;BME280;37474;59.468;18.040;2023-04-06T08:39:45;102675.19;;;4.66;76.48
50380;BME280;37474;59.468;18.040;2023-04-06T08:42:16;102679.56;;;4.81;76.43
50380;BME280;37474;59.468;18.040;2023-04-06T08:44:50;102677.56;;;4.25;74.64
50380;BME280;37474;59.468;18.040;2023-04-06T08:47:19;102675.28;;;4.79;76.16
50380;BME280;37474;59.468;18.040;2023-04-06T08:49:50;102669.38;;;5.06;73.52
50380;BME280;37474;59.468;18.040;2023-04-06T08:52:21;102670.22;;;5.14;73.33
50380;BME280;37474;59.468;18.040;2023-04-06T08:54:51;102669.13;;;4.47;70.83
50380;BME280;37474;59.468;18.040;2023-04-06T08:57:21;102670.88;;;4.55;71.70
50380;BME280;37474;59.468;18.040;2023-04-06T08:59:50;102676.78;;;4.35;72.23
50380;BME280;37474;59.468;18.040;2023-04-06T09:02:19;102668.38;;;4.68;73.53
50380;BME280;37474;59.468;18.040;2023-04-06T09:04:52;102628.00;;;4.37;72.94
50380;BME280;37474;59.468;18.040;2023-04-06T09:07:21;102670.88;;;4.61;68.94
50380;BME280;37474;59.468;18.040;2023-04-06T09:09:51;102672.44;;;4.27;66.34
50380;BME280;37474;59.468;18.040;2023-04-06T09:12:23;102631.53;;;4.65;68.05
50380;BME280;37474;59.468;18.040;2023-04-06T09:14:57;102666.72;;;4.87;64.63
50380;BME280;37474;59.468;18.040;2023-04-06T09:17:26;102677.00;;;4.93;67.93
50380;BME280;37474;59.468;18.040;2023-04-06T09:19:54;102671.09;;;5.25;65.64
50380;BME280;37474;59.468;18.040;2023-04-06T09:22:35;102665.97;;;5.28;65.49
50380;BME280;37474;59.468;18.040;2023-04-06T09:25:06;102635.81;;;4.66;64.47
50380;BME280;37474;59.468;18.040;2023-04-06T09:27:39;102666.66;;;4.67;66.31
50380;BME280;37474;59.468;18.040;2023-04-06T09:30:08;102665.78;;;4.62;64.68
50380;BME280;37474;59.468;18.040;2023-04-06T09:32:49;102668.75;;;3.86;68.03
50380;BME280;37474;59.468;18.040;2023-04-06T09:35:19;102655.44;;;4.48;68.11
50380;BME280;37474;59.468;18.040;2023-04-06T09:37:55;102659.06;;;5.01;65.88
50380;BME280;37474;59.468;18.040;2023-04-06T09:40:24;102653.84;;;4.75;66.88
50380;BME280;37474;59.468;18.040;2023-04-06T09:42:54;102660.78;;;5.14;66.72
50380;BME280;37474;59.468;18.040;2023-04-06T09:45:29;102649.69;;;5.23;63.99
50380;BME280;37474;59.468;18.040;2023-04-06T09:47:59;102648.81;;;5.48;66.43
50380;BME280;37474;59.468;18.040;2023-04-06T09:50:30;102656.44;;;4.84;67.88
50380;BME280;37474;59.468;18.040;2023-04-06T09:53:02;102659.06;;;5.02;69.74
50380;BME280;37474;59.468;18.040;2023-04-06T09:55:42;102653.97;;;5.38;67.35
50380;BME280;37474;59.468;18.040;2023-04-06T09:58:16;102666.88;;;6.00;65.02
50380;BME280;37474;59.468;18.040;2023-04-06T10:00:48;102644.53;;;5.37;66.84
50380;BME280;37474;59.468;18.040;2023-04-06T10:03:30;102659.94;;;6.19;58.61
50380;BME280;37474;59.468;18.040;2023-04-06T10:06:11;102657.31;;;6.41;59.90
50380;BME280;37474;59.468;18.040;2023-04-06T10:08:45;102662.47;;;6.39;58.70
50380;BME280;37474;59.468;18.040;2023-04-06T10:11:16;102646.16;;;6.37;57.84
50380;BME280;37474;59.468;18.040;2023-04-06T10:13:47;102668.56;;;5.78;60.84
50380;BME280;37474;59.468;18.040;2023-04-06T10:16:16;102666.84;;;5.83;60.68
50380;BME280;37474;59.468;18.040;2023-04-06T10:18:47;102669.41;;;5.80;62.09
50380;BME280;37474;59.468;18.040;2023-04-06T10:21:25;102662.47;;;5.04;64.24
50380;BME280;37474;59.468;18.040;2023-04-06T10:23:58;102664.22;;;5.06;66.13
50380;BME280;37474;59.468;18.040;2023-04-06T10:26:28;102665.97;;;5.22;62.23
50380;BME280;37474;59.468;18.040;2023-04-06T10:29:02;102645.34;;;4.94;62.19
50380;BME280;37474;59.468;18.040;2023-04-06T10:31:40;102668.53;;;5.31;61.49
50380;BME280;37474;59.468;18.040;2023-04-06T10:34:10;102665.97;;;5.22;61.70
50380;BME280;37474;59.468;18.040;2023-04-06T10:36:42;102671.97;;;5.76;59.52
50380;BME280;37474;59.468;18.040;2023-04-06T10:39:10;102670.28;;;5.53;59.88
50380;BME280;37474;59.468;18.040;2023-04-06T10:41:43;102664.25;;;5.24;63.30
50380;BME280;37474;59.468;18.040;2023-04-06T10:44:17;102663.41;;;5.40;61.33
50380;BME280;37474;59.468;18.040;2023-04-06T10:46:53;102649.69;;;5.43;63.03
50380;BME280;37474;59.468;18.040;2023-04-06T10:49:24;102652.28;;;5.63;59.51
50380;BME280;37474;59.468;18.040;2023-04-06T10:51:55;102647.13;;;5.34;62.17
50380;BME280;37474;59.468;18.040;2023-04-06T10:54:24;102661.56;;;4.80;62.42
50380;BME280;37474;59.468;18.040;2023-04-06T10:56:54;102659.81;;;4.69;64.39
50380;BME280;37474;59.468;18.040;2023-04-06T10:59:23;102659.06;;;5.09;66.06
50380;BME280;37474;59.468;18.040;2023-04-06T11:01:54;102656.56;;;5.33;62.70
50380;BME280;37474;59.468;18.040;2023-04-06T11:04:24;102630.84;;;5.51;63.49
50380;BME280;37474;59.468;18.040;2023-04-06T11:06:52;102650.56;;;6.01;61.86
50380;BME280;37474;59.468;18.040;2023-04-06T11:09:25;102647.94;;;6.17;61.06
50380;BME280;37474;59.468;18.040;2023-04-06T11:11:55;102641.00;;;6.45;56.38
50380;BME280;37474;59.468;18.040;2023-04-06T11:14:23;102646.28;;;6.00;58.65
50380;BME280;37474;59.468;18.040;2023-04-06T11:16:53;102643.69;;;5.76;59.50
50380;BME280;37474;59.468;18.040;2023-04-06T11:19:21;102610.25;;;5.42;61.26
50380;BME280;37474;59.468;18.040;2023-04-06T11:21:49;102631.69;;;5.34;59.99
50380;BME280;37474;59.468;18.040;2023-04-06T11:24:19;102648.69;;;4.76;64.62
50380;BME280;37474;59.468;18.040;2023-04-06T11:26:49;102606.75;;;4.79;60.58
50380;BME280;37474;59.468;18.040;2023-04-06T11:29:21;102635.97;;;5.45;60.35
50380;BME280;37474;59.468;18.040;2023-04-06T11:31:52;102634.28;;;5.50;58.92
50380;BME280;37474;59.468;18.040;2023-04-06T11:34:21;102642.78;;;5.02;60.24
50380;BME280;37474;59.468;18.040;2023-04-06T11:36:55;102631.66;;;5.60;57.88
50380;BME280;37474;59.468;18.040;2023-04-06T11:39:25;102609.38;;;5.80;55.33
50380;BME280;37474;59.468;18.040;2023-04-06T11:41:55;102633.34;;;6.16;56.22
50380;BME280;37474;59.468;18.040;2023-04-06T11:44:33;102601.31;;;6.79;58.56
50380;BME280;37474;59.468;18.040;2023-04-06T11:47:02;102627.59;;;7.32;56.23
50380;BME280;37474;59.468;18.040;2023-04-06T11:49:37;102621.81;;;6.96;55.56
50380;BME280;37474;59.468;18.040;2023-04-06T11:52:14;102630.69;;;6.42;55.16
50380;BME280;37474;59.468;18.040;2023-04-06T11:54:45;102631.09;;;7.25;56.95
50380;BME280;37474;59.468;18.040;2023-04-06T11:57:13;102617.75;;;7.77;55.41
50380;BME280;37474;59.468;18.040;2023-04-06T11:59:42;102620.50;;;8.43;55.21
50380;BME280;37474;59.468;18.040;2023-04-06T12:02:13;102613.06;;;8.12;54.25
50380;BME280;37474;59.468;18.040;2023-04-06T12:04:41;102629.47;;;7.11;52.94
50380;BME280;37474;59.468;18.040;2023-04-06T12:07:08;102621.31;;;6.28;53.97
50380;BME280;37474;59.468;18.040;2023-04-06T12:09:42;102624.81;;;5.65;56.76
50380;BME280;37474;59.468;18.040;2023-04-06T12:12:10;102629.13;;;5.56;57.65
50380;BME280;37474;59.468;18.040;2023-04-06T12:14:38;102625.66;;;5.44;57.66
50380;BME280;37474;59.468;18.040;2023-04-06T12:17:11;102619.66;;;5.49;58.01
50380;BME280;37474;59.468;18.040;2023-04-06T12:19:39;102618.81;;;5.38;56.86
50380;BME280;37474;59.468;18.040;2023-04-06T12:22:08;102611.09;;;5.53;56.78
50380;BME280;37474;59.468;18.040;2023-04-06T12:24:36;102615.38;;;5.48;56.79
50380;BME280;37474;59.468;18.040;2023-04-06T12:27:04;102613.69;;;5.34;62.55
50380;BME280;37474;59.468;18.040;2023-04-06T12:29:36;102611.09;;;5.41;61.19
50380;BME280;37474;59.468;18.040;2023-04-06T12:32:05;102616.25;;;5.32;62.58
50380;BME280;37474;59.468;18.040;2023-04-06T12:34:34;102612.84;;;5.39;63.01
50380;BME280;37474;59.468;18.040;2023-04-06T12:37:02;102613.69;;;5.63;61.73
50380;BME280;37474;59.468;18.040;2023-04-06T12:39:30;102604.25;;;5.36;62.02
50380;BME280;37474;59.468;18.040;2023-04-06T12:41:58;102599.09;;;5.13;63.65
50380;BME280;37474;59.468;18.040;2023-04-06T12:44:26;102598.22;;;4.89;64.57
50380;BME280;37474;59.468;18.040;2023-04-06T12:46:57;102595.66;;;4.95;64.48
50380;BME280;37474;59.468;18.040;2023-04-06T12:49:25;102599.94;;;5.32;63.53
50380;BME280;37474;59.468;18.040;2023-04-06T12:51:55;102596.50;;;5.14;62.46
50380;BME280;37474;59.468;18.040;2023-04-06T12:54:23;102593.97;;;5.51;63.33